Time;durP1;ratioP1;P1;durP2;ratioP2;P2;SDS_P1;SDS_P2;PMS_P1;PMS_P2;Temp;Humidity;BMP_temperature;BMP_pressure;BME280_temperature;BME280_humidity;BME280_pressure;Samples;Min_cycle;Max_cycle;Signal;HPM_P1;HPM_P2
2023/03/23 00:01:51;;;;;;;6.35;3.08;;;;;;;10.81;100.00;100182.53;5088664;28;20056;-72
2023/03/23 00:04:17;;;;;;;5.20;3.00;;;;;;;10.81;100.00;100169.19;5088276;28;20067;-73
2023/03/23 00:06:44;;;;;;;5.40;2.90;;;;;;;10.79;100.00;100163.25;5087125;28;20073;-72
2023/03/23 00:09:14;;;;;;;7.20;3.15;;;;;;;10.81;100.00;100177.19;5088497;28;20077;-72
2023/03/23 00:11:41;;;;;;;8.60;4.15;;;;;;;10.84;100.00;100190.09;5088709;28;20479;-72
2023/03/23 00:14:12;;;;;;;5.78;2.90;;;;;;;10.87;100.00;100184.34;5092108;28;20100;-72
2023/03/23 00:16:40;;;;;;;6.90;3.25;;;;;;;10.89;100.00;100166.25;5088566;28;20024;-73
2023/03/23 00:19:08;;;;;;;5.70;2.63;;;;;;;10.87;100.00;100155.00;5071411;28;20364;-72
2023/03/23 00:21:39;;;;;;;5.57;2.65;;;;;;;10.89;100.00;100168.09;5072487;28;20083;-72
2023/03/23 00:24:08;;;;;;;7.43;3.92;;;;;;;10.88;100.00;100188.63;5072626;28;20391;-72
2023/03/23 00:26:36;;;;;;;4.07;3.05;;;;;;;10.90;100.00;100189.25;5086029;28;20016;-72
2023/03/23 00:29:18;;;;;;;5.88;3.50;;;;;;;10.91;100.00;100185.53;5092133;28;20052;-72
2023/03/23 00:31:48;;;;;;;8.75;2.92;;;;;;;10.94;100.00;100182.44;5091886;28;20076;-72
2023/03/23 00:34:19;;;;;;;8.40;3.40;;;;;;;10.92;100.00;100170.34;5091776;28;20039;-72
2023/03/23 00:36:49;;;;;;;5.28;3.22;;;;;;;10.94;100.00;100169.09;5091780;28;20024;-72
2023/03/23 00:39:16;;;;;;;4.90;3.13;;;;;;;10.88;100.00;100163.81;5072544;28;20029;-72
2023/03/23 00:41:42;;;;;;;6.80;3.53;;;;;;;11.02;100.00;100188.56;5072343;28;20032;-72
2023/03/23 00:44:08;;;;;;;6.60;3.50;;;;;;;11.02;100.00;100175.22;5070984;28;20037;-72
2023/03/23 00:46:34;;;;;;;4.82;2.75;;;;;;;10.99;100.00;100183.66;5080096;28;20043;-72
2023/03/23 00:48:59;;;;;;;7.88;3.22;;;;;;;11.04;100.00;100186.50;5091203;28;20067;-72
2023/03/23 00:51:25;;;;;;;7.47;3.80;;;;;;;11.05;100.00;100180.91;5091471;28;20048;-72
2023/03/23 00:53:51;;;;;;;5.78;3.15;;;;;;;11.05;100.00;100167.56;5089947;28;20434;-72
2023/03/23 00:56:16;;;;;;;5.50;3.53;;;;;;;11.06;100.00;100169.22;5091631;28;20031;-73
2023/03/23 00:58:42;;;;;;;4.50;2.83;;;;;;;11.08;100.00;100169.84;5091373;28;20039;-72
2023/03/23 01:01:08;;;;;;;8.48;3.72;;;;;;;11.10;100.00;100174.94;5072175;28;20062;-72
2023/03/23 01:03:35;;;;;;;7.97;3.60;;;;;;;11.09;100.00;100168.78;5091777;28;20429;-72
2023/03/23 01:06:12;;;;;;;6.18;3.40;;;;;;;11.03;100.00;100163.50;5091329;28;20115;-72
2023/03/23 01:08:44;;;;;;;7.78;3.35;;;;;;;11.03;100.00;100174.16;5090860;28;20127;-72
2023/03/23 01:11:12;;;;;;;7.72;3.72;;;;;;;11.01;100.00;100145.03;5091144;28;20471;-72
2023/03/23 01:13:38;;;;;;;6.20;3.05;;;;;;;10.95;100.00;100137.88;5090924;28;20055;-72
2023/03/23 01:16:03;;;;;;;6.75;3.63;;;;;;;10.97;100.00;100141.97;5089816;28;20063;-72
2023/03/23 01:18:29;;;;;;;5.65;3.20;;;;;;;10.95;100.00;100151.22;5090961;28;20100;-72
2023/03/23 01:20:54;;;;;;;5.45;3.47;;;;;;;10.88;100.00;100131.81;5091175;28;20027;-72
2023/03/23 01:23:20;;;;;;;7.20;3.40;;;;;;;10.93;100.00;100100.78;5072048;28;20093;-73
2023/03/23 01:25:45;;;;;;;9.38;3.35;;;;;;;10.88;100.00;100089.94;5090835;28;20028;-72
2023/03/23 01:28:11;;;;;;;6.47;3.53;;;;;;;10.93;100.00;100083.94;5090779;28;20039;-72
2023/03/23 01:30:37;;;;;;;5.68;3.45;;;;;;;10.94;100.00;100105.06;5090850;28;20501;-72
2023/03/23 01:33:02;;;;;;;7.63;3.97;;;;;;;10.94;100.00;100107.72;5089011;28;20047;-72
2023/03/23 01:35:28;;;;;;;8.60;3.67;;;;;;;10.93;100.00;100100.78;5071499;28;20032;-72
2023/03/23 01:37:54;;;;;;;6.28;3.40;;;;;;;10.95;100.00;100098.72;5071242;28;20029;-72
2023/03/23 01:40:20;;;;;;;7.18;3.28;;;;;;;10.94;100.00;100091.72;5071352;28;20110;-72
2023/03/23 01:42:45;;;;;;;7.63;3.50;;;;;;;10.97;100.00;100106.47;5069890;28;20040;-72
2023/03/23 01:45:20;;;;;;;6.82;3.53;;;;;;;10.98;100.00;100105.47;5071312;28;20040;-72
2023/03/23 01:48:01;;;;;;;6.97;3.83;;;;;;;10.97;100.00;100107.28;5080056;28;20037;-73
2023/03/23 01:50:29;;;;;;;7.37;3.60;;;;;;;11.02;100.00;100105.84;5071122;28;20025;-72
2023/03/23 01:52:59;;;;;;;4.60;3.13;;;;;;;11.04;100.00;100111.78;5069495;28;20868;-72
2023/03/23 01:55:27;;;;;;;6.03;3.17;;;;;;;11.01;100.00;100105.03;5069165;28;20028;-72
2023/03/23 01:57:55;;;;;;;8.23;3.88;;;;;;;11.02;100.00;100105.84;5070734;28;20380;-72
2023/03/23 02:00:21;;;;;;;8.80;3.78;;;;;;;11.08;100.00;100099.63;5070544;28;20028;-72
2023/03/23 02:02:48;;;;;;;6.95;3.72;;;;;;;11.07;100.00;100088.13;5070892;28;20120;-72
2023/03/23 02:05:23;;;;;;;5.22;3.40;;;;;;;11.11;100.00;100093.88;5070496;28;20031;-72
2023/03/23 02:07:51;;;;;;;4.97;3.42;;;;;;;11.10;100.00;100078.88;5069319;28;20020;-72
2023/03/23 02:10:16;;;;;;;6.30;3.10;;;;;;;11.09;100.00;100071.91;5070424;28;20025;-72
2023/03/23 02:12:42;;;;;;;4.75;3.08;;;;;;;11.11;100.00;100064.50;5070589;28;20386;-72
2023/03/23 02:15:07;;;;;;;7.63;3.58;;;;;;;11.12;100.00;100074.94;5070565;28;20025;-72
2023/03/23 02:17:51;;;;;;;6.22;3.42;;;;;;;11.14;100.00;100056.88;5070518;28;20039;-72
2023/03/23 02:20:47;;;;;;;5.85;3.50;;;;;;;11.17;100.00;100053.75;5089787;28;20020;-72
2023/03/23 02:23:36;;;;;;;5.05;3.40;;;;;;;11.17;100.00;100053.75;5089795;28;20028;-72
2023/03/23 02:26:15;;;;;;;5.03;3.47;;;;;;;11.20;100.00;100055.16;5089779;28;20479;-73
2023/03/23 02:28:59;;;;;;;7.28;3.95;;;;;;;11.25;100.00;100054.50;5089661;28;20035;-72
2023/03/23 02:31:38;;;;;;;8.80;3.55;;;;;;;11.25;100.00;100050.00;5089439;28;20048;-73
2023/03/23 02:34:26;;;;;;;9.35;4.05;;;;;;;11.26;100.00;100056.94;5089705;28;20030;-72
2023/03/23 02:37:00;;;;;;;6.97;3.55;;;;;;;11.23;100.00;100052.06;5089284;28;20119;-73
2023/03/23 02:39:32;;;;;;;10.77;3.65;;;;;;;11.27;100.00;100052.44;5089488;28;20037;-73
2023/03/23 02:42:00;;;;;;;;;;;;;;;11.31;100.00;100053.63;5073589;28;20036;-72
2023/03/23 02:44:29;;;;;;;3.10;2.80;;;;;;;11.30;100.00;100049.34;5070016;28;19920;-73
2023/03/23 02:46:57;;;;;;;16.27;4.75;;;;;;;11.30;100.00;100042.13;5070078;28;20025;-73
2023/03/23 02:49:27;;;;;;;6.50;3.13;;;;;;;11.29;100.00;100048.53;5069962;28;20526;-72
2023/03/23 02:51:56;;;;;;;8.23;3.72;;;;;;;11.29;100.00;100050.34;5089036;28;20032;-72
2023/03/23 02:54:25;;;;;;;6.25;3.67;;;;;;;11.27;100.00;100044.44;5089185;28;20057;-73
2023/03/23 02:56:51;;;;;;;5.25;3.35;;;;;;;11.31;100.00;100051.75;5089263;28;20028;-72
2023/03/23 02:59:17;;;;;;;6.70;4.10;;;;;;;11.34;100.00;100064.69;5079572;28;20182;-73
2023/03/23 03:01:42;;;;;;;6.22;3.50;;;;;;;11.36;100.00;100054.59;5073365;28;20538;-72
2023/03/23 03:04:14;;;;;;;5.73;3.33;;;;;;;11.33;100.00;100049.69;5089060;28;20020;-72
2023/03/23 03:06:49;;;;;;;5.32;3.08;;;;;;;11.34;100.00;100045.16;5069816;28;20366;-72
2023/03/23 03:09:43;;;;;;;8.82;4.35;;;;;;;11.38;100.00;100049.03;5069654;28;20040;-72
2023/03/23 03:12:17;;;;;;;6.97;3.10;;;;;;;11.36;100.00;100051.91;5068830;28;20132;-72
2023/03/23 03:14:57;;;;;;;10.48;3.90;;;;;;;11.33;100.00;100043.53;5069628;28;20064;-72
2023/03/23 03:17:25;;;;;;;5.93;3.08;;;;;;;11.37;100.00;100056.25;5089078;28;20383;-73
2023/03/23 03:19:56;;;;;;;6.30;2.97;;;;;;;11.39;100.00;100072.81;5069505;28;20039;-72
2023/03/23 03:22:28;;;;;;;5.22;2.85;;;;;;;11.39;100.00;100059.47;5069610;28;20020;-73
2023/03/23 03:24:56;;;;;;;4.93;3.22;;;;;;;11.44;100.00;100055.34;5069484;28;20021;-72
2023/03/23 03:27:23;;;;;;;7.18;3.70;;;;;;;11.44;100.00;100064.16;5089035;28;20532;-72
2023/03/23 03:29:53;;;;;;;5.68;3.53;;;;;;;11.39;100.00;100054.13;5069468;28;20028;-73
2023/03/23 03:32:23;;;;;;;6.40;3.17;;;;;;;11.47;100.00;100063.72;5069361;28;20408;-72
2023/03/23 03:34:53;;;;;;;7.07;3.88;;;;;;;11.43;100.00;100067.06;5069289;28;20025;-72
2023/03/23 03:37:20;;;;;;;6.13;3.22;;;;;;;11.41;100.00;100057.41;5088740;28;20036;-72
2023/03/23 03:39:46;;;;;;;6.50;3.97;;;;;;;11.44;100.00;100058.00;5088788;28;20035;-72
2023/03/23 03:42:11;;;;;;;6.55;3.45;;;;;;;11.44;100.00;100058.81;5088700;28;20043;-72
2023/03/23 03:44:37;;;;;;;5.20;3.45;;;;;;;11.44;100.00;100064.16;5087104;28;20051;-72
2023/03/23 03:47:02;;;;;;;5.18;3.03;;;;;;;11.40;100.00;100060.31;5091066;28;20039;-72
2023/03/23 03:49:28;;;;;;;7.22;3.63;;;;;;;11.43;100.00;100067.06;5092376;28;20031;-72
2023/03/23 03:51:53;;;;;;;6.50;3.33;;;;;;;11.40;100.00;100063.00;5085281;28;20024;-72
2023/03/23 03:54:19;;;;;;;6.05;3.20;;;;;;;11.41;100.00;100064.59;5092876;28;20020;-72
2023/03/23 03:56:45;;;;;;;6.03;2.90;;;;;;;11.41;100.00;100064.59;5078170;28;20028;-73
2023/03/23 03:59:12;;;;;;;6.53;3.15;;;;;;;11.45;100.00;100067.63;5071672;28;20506;-72
2023/03/23 04:01:38;;;;;;;6.43;3.40;;;;;;;11.46;100.00;100061.28;5071927;28;20166;-73
2023/03/23 04:04:06;;;;;;;5.03;2.60;;;;;;;11.45;100.00;100067.63;5073040;28;20025;-73
2023/03/23 04:06:32;;;;;;;7.35;3.50;;;;;;;11.45;100.00;100068.47;5092142;28;20032;-72
2023/03/23 04:08:58;;;;;;;6.40;3.75;;;;;;;11.47;100.00;100084.25;5092462;28;20077;-72
2023/03/23 04:11:25;;;;;;;4.70;2.90;;;;;;;11.44;100.00;100069.50;5084282;28;20090;-73
2023/03/23 04:13:50;;;;;;;8.25;2.78;;;;;;;11.46;100.00;100080.78;5072746;28;20429;-73
2023/03/23 04:16:16;;;;;;;7.95;3.75;;;;;;;11.45;100.00;100068.47;5072676;28;20028;-73
2023/03/23 04:18:43;;;;;;;8.07;2.83;;;;;;;11.45;100.00;100078.31;5072787;28;20494;-77
2023/03/23 04:21:09;;;;;;;4.70;2.72;;;;;;;11.41;100.00;100076.09;5090827;28;20028;-77
2023/03/23 04:23:35;;;;;;;4.22;2.47;;;;;;;11.47;100.00;100082.41;5084919;28;20040;-77
2023/03/23 04:26:03;;;;;;;5.10;2.33;;;;;;;11.52;100.00;100076.41;5072658;28;20028;-77
2023/03/23 04:28:29;;;;;;;7.97;2.65;;;;;;;11.49;100.00;100075.00;5072797;28;20039;-77
2023/03/23 04:30:55;;;;;;;6.15;2.65;;;;;;;11.53;100.00;100078.88;5072580;28;20039;-77
2023/03/23 04:33:24;;;;;;;4.88;2.75;;;;;;;11.51;100.00;100090.81;5072207;28;20045;-77
2023/03/23 04:35:51;;;;;;;6.53;2.70;;;;;;;11.47;100.00;100076.25;5072399;28;20039;-77
2023/03/23 04:38:20;;;;;;;5.50;2.05;;;;;;;11.49;100.00;100093.69;5072634;28;20052;-77
2023/03/23 04:40:47;;;;;;;4.78;2.50;;;;;;;11.52;100.00;100095.09;5072420;28;20032;-77
2023/03/23 04:43:14;;;;;;;3.90;1.55;;;;;;;11.54;100.00;100101.84;5072255;28;20060;-77
2023/03/23 04:45:45;;;;;;;7.55;2.35;;;;;;;11.57;100.00;100105.94;5088073;28;20459;-77
2023/03/23 04:48:10;;;;;;;3.63;1.83;;;;;;;11.53;100.00;100105.56;5091511;28;20384;-77
2023/03/23 04:50:36;;;;;;;7.78;2.45;;;;;;;11.53;100.00;100105.56;5091629;28;20035;-72
2023/03/23 04:53:06;;;;;;;8.05;2.25;;;;;;;11.52;100.00;100101.25;5072103;28;20032;-72
2023/03/23 04:55:36;;;;;;;6.05;2.38;;;;;;;11.55;100.00;100098.16;5077860;28;20395;-72
2023/03/23 04:58:07;;;;;;;6.15;1.77;;;;;;;11.55;100.00;100100.00;5090135;28;20034;-72
2023/03/23 05:00:33;;;;;;;7.53;2.08;;;;;;;11.56;100.00;100094.44;5091413;28;20028;-72
2023/03/23 05:03:00;;;;;;;8.80;2.42;;;;;;;11.55;100.00;100105.34;5091046;28;20032;-72
2023/03/23 05:05:27;;;;;;;6.60;2.50;;;;;;;11.52;100.00;100109.25;5091218;28;20028;-72
2023/03/23 05:07:53;;;;;;;4.90;1.52;;;;;;;11.50;100.00;100105.19;5091417;28;20034;-72
2023/03/23 05:10:19;;;;;;;6.78;2.58;;;;;;;11.47;100.00;100100.28;5091198;28;20028;-72
2023/03/23 05:12:45;;;;;;;4.78;1.48;;;;;;;11.45;100.00;100092.50;5071797;28;20097;-72
2023/03/23 05:15:12;;;;;;;4.80;1.75;;;;;;;11.47;100.00;100110.97;5071700;28;20361;-72
2023/03/23 05:17:38;;;;;;;4.05;1.52;;;;;;;11.44;100.00;100100.72;5071753;28;20434;-72
2023/03/23 05:20:11;;;;;;;3.55;1.83;;;;;;;11.47;100.00;100108.28;5070431;28;20025;-72
2023/03/23 05:22:38;;;;;;;3.72;1.73;;;;;;;11.49;100.00;100101.69;5071564;28;20032;-72
2023/03/23 05:25:04;;;;;;;7.43;2.20;;;;;;;11.50;100.00;100100.69;5071498;28;20039;-73
2023/03/23 05:27:32;;;;;;;4.38;1.40;;;;;;;11.47;100.00;100097.63;5070031;28;20037;-72
2023/03/23 05:29:58;;;;;;;4.07;2.08;;;;;;;11.45;100.00;100105.03;5071497;28;20115;-76
2023/03/23 05:32:28;;;;;;;9.57;2.17;;;;;;;11.36;100.00;100094.63;5086103;28;20080;-77
2023/03/23 05:34:56;;;;;;;4.40;1.80;;;;;;;11.42;100.00;100103.59;5089349;28;20027;-77
2023/03/23 05:37:22;;;;;;;8.50;2.30;;;;;;;11.39;100.00;100112.88;5090849;28;20047;-77
2023/03/23 05:39:47;;;;;;;5.45;2.03;;;;;;;11.37;100.00;100103.44;5089385;28;20391;-77
2023/03/23 05:42:12;;;;;;;7.47;1.85;;;;;;;11.42;100.00;100114.28;5089223;28;20046;-77
2023/03/23 05:44:38;;;;;;;9.20;1.98;;;;;;;11.44;100.00;100111.41;5087407;28;20035;-77
2023/03/23 05:47:03;;;;;;;4.47;2.05;;;;;;;11.46;100.00;100118.16;5070888;28;20060;-77
2023/03/23 05:49:28;;;;;;;3.20;1.63;;;;;;;11.36;100.00;100099.16;5071713;28;20094;-77
2023/03/23 05:51:54;;;;;;;6.55;2.00;;;;;;;11.43;100.00;100115.13;5069525;28;20472;-77
2023/03/23 05:54:19;;;;;;;7.40;2.15;;;;;;;11.39;100.00;100118.22;5070813;28;20491;-77
2023/03/23 05:56:45;;;;;;;3.90;1.50;;;;;;;11.36;100.00;100117.84;5071059;28;20040;-77
2023/03/23 05:59:11;;;;;;;4.72;1.80;;;;;;;11.35;100.00;100119.72;5069293;28;20056;-77
2023/03/23 06:01:37;;;;;;;2.85;1.35;;;;;;;11.33;100.00;100112.97;5070699;28;20110;-77
2023/03/23 06:04:02;;;;;;;4.78;1.75;;;;;;;11.31;100.00;100120.38;5069384;28;20025;-77
2023/03/23 06:06:29;;;;;;;5.28;1.83;;;;;;;11.27;100.00;100116.50;5070650;28;20036;-77
2023/03/23 06:08:55;;;;;;;10.82;1.88;;;;;;;11.29;100.00;100128.59;5070795;28;20028;-77
2023/03/23 06:11:21;;;;;;;8.45;1.95;;;;;;;11.20;100.00;100121.91;5084077;28;20028;-77
2023/03/23 06:13:47;;;;;;;9.45;3.47;;;;;;;11.30;100.00;100129.41;5083025;28;20490;-77
2023/03/23 06:16:14;;;;;;;4.47;1.80;;;;;;;11.30;100.00;100121.41;5070459;28;20563;-77
2023/03/23 06:18:40;;;;;;;6.38;2.55;;;;;;;11.25;100.00;100119.38;5089400;28;20390;-77
2023/03/23 06:21:07;;;;;;;5.15;2.10;;;;;;;11.28;100.00;100137.63;5088337;28;20189;-77
2023/03/23 06:23:33;;;;;;;15.32;2.83;;;;;;;11.32;100.00;100146.03;5089349;28;20040;-77
2023/03/23 06:26:03;;;;;;;5.80;1.83;;;;;;;11.29;100.00;100141.94;5089678;28;20035;-77
2023/03/23 06:28:28;;;;;;;7.30;1.85;;;;;;;11.34;100.00;100150.13;5089470;28;20088;-78
2023/03/23 06:30:54;;;;;;;9.00;2.55;;;;;;;11.31;100.00;100157.72;5075469;28;20118;-78
2023/03/23 06:33:20;;;;;;;6.85;1.75;;;;;;;11.36;100.00;100166.72;5069399;28;20049;-73
2023/03/23 06:35:46;;;;;;;9.63;2.28;;;;;;;11.38;100.00;100161.97;5072947;28;20379;-74
2023/03/23 06:38:11;;;;;;;10.60;2.85;;;;;;;11.31;100.00;100161.22;5072567;28;20744;-73
2023/03/23 06:40:37;;;;;;;3.95;2.05;;;;;;;11.38;100.00;100175.34;5072739;28;20059;-74
2023/03/23 06:43:03;;;;;;;4.28;2.05;;;;;;;11.37;100.00;100176.38;5072090;28;20446;-76
2023/03/23 06:45:29;;;;;;;7.82;1.95;;;;;;;11.41;100.00;100172.22;5071889;28;20063;-76
2023/03/23 06:47:55;;;;;;;5.35;2.25;;;;;;;11.44;100.00;100181.66;5072851;28;20027;-74
2023/03/23 06:50:22;;;;;;;5.32;2.00;;;;;;;11.41;100.00;100182.09;5072266;28;20076;-75
2023/03/23 06:52:49;;;;;;;11.45;3.45;;;;;;;11.42;100.00;100186.38;5072739;28;20103;-76
2023/03/23 06:55:15;;;;;;;4.78;2.30;;;;;;;11.35;100.00;100181.13;5072534;28;20020;-75
2023/03/23 06:57:42;;;;;;;12.25;2.55;;;;;;;11.39;100.00;100189.50;5073494;28;20497;-74
2023/03/23 07:00:09;;;;;;;6.03;2.17;;;;;;;11.36;100.00;100193.41;5083209;28;20070;-74
2023/03/23 07:02:35;;;;;;;8.95;1.95;;;;;;;11.30;100.00;100194.28;5077099;28;20078;-76
2023/03/23 07:05:01;;;;;;;7.28;2.83;;;;;;;11.23;100.00;100195.38;5078033;28;20016;-74
2023/03/23 07:07:26;;;;;;;4.70;2.28;;;;;;;11.17;100.00;100195.22;5078404;28;20078;-74
2023/03/23 07:09:51;;;;;;;5.07;1.80;;;;;;;11.18;100.00;100198.69;5075746;28;20028;-74
2023/03/23 07:12:17;;;;;;;9.13;1.90;;;;;;;11.17;100.00;100210.41;5073511;28;20056;-74
2023/03/23 07:14:42;;;;;;;6.63;1.70;;;;;;;11.16;100.00;100203.41;5074129;28;20089;-74
2023/03/23 07:17:08;;;;;;;5.55;2.13;;;;;;;11.07;100.00;100192.19;5076644;28;20551;-74
2023/03/23 07:19:33;;;;;;;8.52;1.52;;;;;;;11.17;100.00;100208.56;5075942;28;20379;-74
2023/03/23 07:21:59;;;;;;;6.80;1.42;;;;;;;11.15;100.00;100217.81;5074139;28;20646;-76
2023/03/23 07:24:25;;;;;;;3.90;1.80;;;;;;;11.07;100.00;100223.41;5071447;28;20020;-73
2023/03/23 07:26:50;;;;;;;8.30;1.98;;;;;;;10.99;100.00;100234.34;5069848;28;20083;-75
2023/03/23 07:29:16;;;;;;;9.15;3.17;;;;;;;10.89;100.00;100229.47;5082315;28;20036;-75
2023/03/23 07:31:42;;;;;;;5.40;2.17;;;;;;;10.71;100.00;100214.97;5079957;28;20077;-75
2023/03/23 07:34:08;;;;;;;8.45;2.85;;;;;;;10.61;100.00;100219.13;5084985;28;20051;-75
2023/03/23 07:36:37;;;;;;;6.43;1.90;;;;;;;10.49;100.00;100211.81;5077137;28;20039;-74
2023/03/23 07:39:05;;;;;;;3.88;2.10;;;;;;;10.49;100.00;100211.00;5074588;28;20040;-75
2023/03/23 07:41:31;;;;;;;7.82;2.10;;;;;;;10.48;100.00;100218.19;5081982;28;20046;-75
2023/03/23 07:43:56;;;;;;;3.50;1.88;;;;;;;10.46;100.00;100230.91;5073900;28;20028;-75
2023/03/23 07:46:22;;;;;;;5.57;1.85;;;;;;;10.48;100.00;100230.72;5080548;28;20032;-76
2023/03/23 07:48:48;;;;;;;4.13;1.52;;;;;;;10.40;100.00;100245.09;5080552;28;20025;-75
2023/03/23 07:51:16;;;;;;;1.77;1.52;;;;;;;10.34;100.00;100259.22;5081294;28;20040;-76
2023/03/23 07:53:44;;;;;;;3.38;1.52;;;;;;;10.16;100.00;100249.19;5083507;28;20036;-75
2023/03/23 07:56:12;;;;;;;4.70;1.15;;;;;;;9.99;100.00;100245.38;5073876;28;20114;-76
2023/03/23 07:58:37;;;;;;;4.68;1.42;;;;;;;9.80;100.00;100231.06;5078999;28;20537;-76
2023/03/23 08:01:03;;;;;;;1.35;0.73;;;;;;;9.73;100.00;100243.56;5082062;28;20033;-76
2023/03/23 08:03:28;;;;;;;1.75;0.63;;;;;;;9.69;100.00;100256.44;5080779;28;20590;-76
2023/03/23 08:05:58;;;;;;;3.15;1.45;;;;;;;9.68;100.00;100254.00;5078507;28;20468;-76
2023/03/23 08:08:24;;;;;;;2.25;0.82;;;;;;;9.72;100.00;100260.53;5076298;28;20348;-77
2023/03/23 08:10:50;;;;;;;2.30;0.75;;;;;;;9.68;100.00;100252.16;5073622;28;20054;-77
2023/03/23 08:13:15;;;;;;;2.60;0.80;;;;;;;9.65;100.00;100253.38;5084961;28;20076;-76
2023/03/23 08:15:41;;;;;;;2.88;0.85;;;;;;;9.72;100.00;100263.19;5069271;28;20970;-76
2023/03/23 08:18:06;;;;;;;2.30;0.75;;;;;;;9.73;100.00;100254.19;5076100;28;20033;-76
2023/03/23 08:20:32;;;;;;;4.40;1.30;;;;;;;9.69;100.00;100259.09;5073436;28;20036;-76
2023/03/23 08:22:59;;;;;;;2.13;1.33;;;;;;;9.74;100.00;100269.13;5084221;28;20028;-77
2023/03/23 08:25:25;;;;;;;3.88;1.10;;;;;;;9.77;100.00;100274.91;5074764;28;20395;-76
2023/03/23 08:27:51;;;;;;;2.05;0.88;;;;;;;9.88;100.00;100278.78;5080042;28;20029;-75
2023/03/23 08:30:19;;;;;;;4.25;1.55;;;;;;;10.01;100.00;100273.44;5087088;28;20051;-76
2023/03/23 08:32:47;;;;;;;2.95;1.20;;;;;;;10.18;100.00;100275.66;5079429;28;20052;-76
2023/03/23 08:35:14;;;;;;;1.23;0.90;;;;;;;10.33;100.00;100284.28;5073362;28;20406;-76
2023/03/23 08:37:41;;;;;;;3.50;1.20;;;;;;;10.36;100.00;100291.03;5072759;28;20035;-71
2023/03/23 08:40:11;;;;;;;8.52;1.35;;;;;;;10.29;100.00;100278.50;5072664;28;20102;-71
2023/03/23 08:42:37;;;;;;;3.03;1.20;;;;;;;10.41;100.00;100283.22;5072702;28;20507;-71
2023/03/23 08:45:06;;;;;;;3.15;0.90;;;;;;;10.41;100.00;100273.38;5090179;28;20032;-71
2023/03/23 08:47:33;;;;;;;4.90;1.52;;;;;;;10.45;100.00;100277.28;5091715;28;20058;-71
2023/03/23 08:49:58;;;;;;;1.88;0.80;;;;;;;10.51;100.00;100276.41;5091560;28;20031;-72
2023/03/23 08:52:24;;;;;;;6.65;1.25;;;;;;;10.57;100.00;100271.28;5072795;28;20411;-71
2023/03/23 08:54:49;;;;;;;6.03;1.35;;;;;;;10.61;100.00;100278.66;5088818;28;20024;-71
2023/03/23 08:57:15;;;;;;;1.05;0.90;;;;;;;10.61;100.00;100278.66;5072301;28;20046;-70
2023/03/23 08:59:41;;;;;;;4.35;2.25;;;;;;;10.65;100.00;100290.50;5073344;28;20067;-70
2023/03/23 09:02:11;;;;;;;4.57;1.35;;;;;;;10.70;100.00;100285.38;5074630;28;20066;-69
2023/03/23 09:04:37;;;;;;;1.33;1.00;;;;;;;10.66;100.00;100278.00;5075201;28;20029;-70
2023/03/23 09:07:03;;;;;;;2.15;0.90;;;;;;;10.62;100.00;100290.13;5073616;28;20411;-69
2023/03/23 09:09:28;;;;;;;8.55;3.15;;;;;;;10.75;100.00;100296.22;5075262;28;20111;-69
2023/03/23 09:11:54;;;;;;;3.70;0.80;;;;;;;10.92;100.00;100291.22;5074836;28;20096;-75
2023/03/23 09:14:19;;;;;;;3.88;0.80;;;;;;;11.13;100.00;100289.25;5074521;28;20045;-75
2023/03/23 09:16:45;;;;;;;3.15;1.35;;;;;;;11.14;100.00;100289.06;5075809;28;20036;-75
2023/03/23 09:19:10;;;;;;;2.15;1.02;;;;;;;11.08;100.00;100281.91;5074417;28;20048;-74
2023/03/23 09:21:36;;;;;;;3.90;0.98;;;;;;;11.01;100.00;100269.66;5074457;28;20028;-74
2023/03/23 09:24:01;;;;;;;3.22;1.02;;;;;;;11.07;100.00;100266.94;5079796;28;20135;-77
2023/03/23 09:26:27;;;;;;;1.48;1.00;;;;;;;11.29;100.00;100266.56;5076740;28;20068;-78
2023/03/23 09:28:53;;;;;;;5.30;1.30;;;;;;;11.62;100.00;100279.69;5074231;28;20060;-77
2023/03/23 09:31:22;;;;;;;5.20;1.77;;;;;;;11.69;100.00;100287.69;5076427;28;20111;-77
2023/03/23 09:33:51;;;;;;;4.25;1.45;;;;;;;11.67;100.00;100293.22;5073769;28;20052;-77
2023/03/23 09:36:20;;;;;;;2.50;0.90;;;;;;;11.69;100.00;100298.38;5083502;28;20512;-77
2023/03/23 09:38:46;;;;;;;2.63;0.70;;;;;;;11.50;100.00;100282.28;5082787;28;20094;-77
2023/03/23 09:41:29;;;;;;;5.43;1.42;;;;;;;11.45;100.00;100299.94;5083207;28;20032;-77
2023/03/23 09:44:22;;;;;;;4.78;1.00;;;;;;;11.34;100.00;100296.13;5084006;28;20391;-77
2023/03/23 09:47:03;;;;;;;3.20;1.00;;;;;;;11.30;100.00;100302.94;5083639;28;20475;-77
2023/03/23 09:49:44;;;;;;;2.78;1.15;;;;;;;11.39;100.00;100313.13;5081559;28;20052;-77
2023/03/23 09:52:17;;;;;;;4.15;1.33;;;;;;;11.47;100.00;100313.91;5079181;28;20107;-77
2023/03/23 09:54:50;;;;;;;4.20;1.50;;;;;;;11.61;100.00;100321.63;5074869;28;20027;-77
2023/03/23 09:57:27;;;;;;;7.93;1.83;;;;;;;11.75;100.00;100314.31;5082037;28;20059;-77
2023/03/23 09:59:57;;;;;;;5.30;1.50;;;;;;;11.92;100.00;100319.16;5080187;28;20048;-77
2023/03/23 10:02:41;;;;;;;3.78;1.10;;;;;;;12.00;100.00;100316.22;5090519;28;20031;-77
2023/03/23 10:05:34;;;;;;;2.10;1.20;;;;;;;12.10;100.00;100323.72;5076813;28;20352;-77
2023/03/23 10:08:05;;;;;;;4.57;1.02;;;;;;;12.18;100.00;100328.78;5081148;28;20115;-77
2023/03/23 10:11:01;;;;;;;5.30;1.25;;;;;;;12.21;100.00;100334.53;5082460;28;20107;-77
2023/03/23 10:13:45;;;;;;;6.18;1.00;;;;;;;12.34;100.00;100324.72;5076023;28;20146;-77
2023/03/23 10:16:17;;;;;;;1.85;1.00;;;;;;;12.41;100.00;100330.84;5076879;28;20391;-77
2023/03/23 10:19:01;;;;;;;4.55;1.50;;;;;;;12.53;100.00;100329.06;5080780;28;20031;-77
2023/03/23 10:21:30;;;;;;;5.22;1.35;;;;;;;12.56;100.00;100323.28;5090088;28;20012;-77
2023/03/23 10:24:00;;;;;;;4.15;1.08;;;;;;;12.70;100.00;100323.94;5079606;28;20031;-77
2023/03/23 10:26:48;;;;;;;4.80;2.28;;;;;;;12.79;100.00;100332.50;5072346;28;20029;-78
2023/03/23 10:29:20;;;;;;;5.28;1.35;;;;;;;12.90;100.00;100334.41;5077792;28;20028;-77
2023/03/23 10:32:13;;;;;;;2.55;1.50;;;;;;;12.99;100.00;100327.69;5076438;28;20028;-77
2023/03/23 10:34:41;;;;;;;5.40;1.75;;;;;;;13.30;100.00;100344.63;5075505;28;20030;-77
2023/03/23 10:37:19;;;;;;;3.13;1.25;;;;;;;13.49;98.29;100350.75;5086906;28;20036;-78
2023/03/23 10:39:50;;;;;;;2.83;1.40;;;;;;;13.49;98.45;100348.06;5083914;28;20032;-77
2023/03/23 10:42:27;;;;;;;3.95;2.17;;;;;;;13.53;96.18;100342.03;5079304;28;20028;-77
2023/03/23 10:44:54;;;;;;;3.30;1.65;;;;;;;13.74;95.66;100348.72;5070908;28;20115;-77
2023/03/23 10:47:20;;;;;;;3.85;1.20;;;;;;;13.86;96.68;100348.75;5086500;28;20467;-78
2023/03/23 10:53:57;;;;;;;6.10;1.60;;;;;;;14.15;95.68;100348.91;5048421;28;20139;-78
2023/03/23 10:56:28;;;;;;;2.95;1.63;;;;;;;14.25;93.50;100338.38;5075613;28;20050;-77
2023/03/23 10:58:55;;;;;;;6.07;1.57;;;;;;;14.23;93.29;100352.06;5078599;28;20020;-77
2023/03/23 11:01:31;;;;;;;6.88;2.10;;;;;;;14.17;94.06;100355.69;5071341;28;20498;-71
2023/03/23 11:03:57;;;;;;;3.67;2.20;;;;;;;14.08;93.45;100346.31;5089119;28;20464;-71
2023/03/23 11:06:26;;;;;;;8.18;1.73;;;;;;;14.40;96.52;100337.94;5089415;28;20352;-71
2023/03/23 11:09:11;;;;;;;6.68;1.45;;;;;;;14.58;93.48;100328.97;5089468;28;20024;-71
2023/03/23 11:11:42;;;;;;;3.28;1.65;;;;;;;14.49;90.29;100344.59;5089268;28;20051;-71
2023/03/23 11:14:18;;;;;;;5.00;1.90;;;;;;;14.42;92.87;100336.66;5087803;28;20910;-71
2023/03/23 11:16:53;;;;;;;4.25;1.48;;;;;;;14.43;90.04;100335.59;5089119;28;20020;-71
2023/03/23 11:19:25;;;;;;;3.65;1.50;;;;;;;14.49;91.95;100325.81;5089306;28;20032;-71
2023/03/23 11:22:04;;;;;;;7.38;2.30;;;;;;;14.61;91.66;100328.47;5089156;28;20020;-72
2023/03/23 11:24:33;;;;;;;4.43;2.22;;;;;;;14.58;89.89;100339.69;5089160;28;20028;-71
2023/03/23 11:26:59;;;;;;;6.00;2.15;;;;;;;14.69;91.31;100336.16;5089262;28;20028;-71
2023/03/23 11:29:27;;;;;;;5.63;1.75;;;;;;;14.83;90.39;100350.16;5089190;28;20486;-71
2023/03/23 11:31:58;;;;;;;7.30;2.63;;;;;;;14.79;88.97;100352.50;5088033;28;20076;-71